Albion, New York
Current Conditions -  °F | °C
As of 7:54 PM on Monday 20 Oct 2014 (Local Time) from KROC Reporting Station
Light Rain Light Rain  
Wind Chill: 51°   Ceiling: 4300
Heat Index: 51°   Visibility: 10mi
Dew Point: 45°   Wind: 0mph
Humidity: 80%   Direction: NA
Pressure: 29.84"   Gusts: NA
Location:  43.25°N, 78.19°W
Report Text: KROC 202354Z 00000KT 10SM -RA BKN043 OVC060 11/07 A2984 RMK AO2 SLP111 P0000 60000 T01060072 10122 20106 53001
Loading
Personal Weather Stations






























Interactive Weather Map
Tropical Storm Tracking
New forecast layout! Learn more

10-Day Weather Forecast

Advertisements
Track Severe Weather on mobile